Data for 12/04/2005

Time Sea-Level Adjusted Pressure Absolute Pressure Temperature Relative Humidity Dew Point   
(mb) (inHg) (mb) (inHg) (C) (F) (%) (C) (F)
00:05 1017 30.03 846 24.98 -6.4 20.5 70 -11 12.3
00:10 1017 30.03 846 24.98 -6.5 20.2 71 -11 12.2
00:15 1017 30.03 846 24.98 -6.6 20.1 71 -11.1 12.1
00:20 1017 30.03 846 24.98 -6.6 20.2 71 -11.1 12.1
00:25 1017 30.03 846 24.98 -6.5 20.3 70 -11.1 11.9
00:30 1017 30.03 846 24.98 -6.4 20.5 69 -11.2 11.8
00:35 1017 30.03 846 24.98 -6.4 20.5 69 -11.2 11.8
00:40 1017 30.03 846 24.98 -6.4 20.5 69 -11.2 11.8
00:45 1017 30.03 846 24.98 -6.4 20.4 68 -11.5 11.4
00:50 1017 30.03 846 24.98 -6.5 20.2 68 -11.5 11.3
00:55 1017 30.03 846 24.98 -6.7 19.9 68 -11.7 11
01:00 1017 30.03 846 24.98 -7.2 19.1 68 -12 10.3
01:05 1017 30.03 846 24.98 -7.2 19.1 68 -12.2 10.1
01:10 1017 30.03 846 24.98 -7.1 19.2 67 -12.3 9.9
01:15 1017 30.03 846 24.98 -7 19.4 66 -12.2 10
01:20 1017 30.03 846 24.98 -7 19.5 66 -12.4 9.7
01:25 1017 30.03 846 24.98 -6.9 19.6 66 -12.3 9.8
01:30 1017 30.03 846 24.98 -6.7 20 66 -12.1 10.2
01:35 1017 30.03 846 24.98 -6.7 19.9 66 -12.1 10.2
01:40 1017 30.03 847 25.01 -6.7 20 66 -12 10.5
01:45 1017 30.03 847 25.01 -6.8 19.8 69 -11.6 11.2
01:50 1017 30.03 847 25.01 -7 19.3 68 -11.9 10.6
01:55 1017 30.03 847 25.01 -7 19.3 68 -11.9 10.5
02:00 1017 30.03 847 25.01 -7 19.4 67 -12.1 10.1
02:05 1018 30.06 847 25.01 -6.9 19.5 66 -12.3 9.8
02:10 1018 30.06 847 25.01 -7 19.4 65 -12.5 9.5
02:15 1018 30.06 847 25.01 -7.1 19.2 65 -12.6 9.4
02:20 1018 30.06 847 25.01 -7.1 19.1 65 -12.6 9.4
02:25 1018 30.06 847 25.01 -7.2 19 65 -12.8 9
02:30 1018 30.06 847 25.01 -7.2 19.1 64 -12.8 9
02:35 1018 30.06 847 25.01 -7.3 19 65 -12.8 8.9
02:40 1018 30.06 847 25.01 -7.3 18.9 65 -12.8 8.9
02:45 1018 30.06 847 25.01 -7.3 18.9 65 -12.9 8.9
02:50 1018 30.06 847 25.01 -7.4 18.8 65 -12.8 8.9
02:55 1018 30.06 847 25.01 -7.4 18.6 65 -13 8.6
03:00 1018 30.06 847 25.01 -7.4 18.7 64 -13 8.5
03:05 1018 30.06 847 25.01 -7.4 18.8 63 -13.2 8.3
03:10 1018 30.06 847 25.01 -7.3 18.8 64 -13.1 8.4
03:15 1018 30.06 847 25.01 -7.2 19.1 63 -13 8.6
03:20 1018 30.06 847 25.01 -7.3 19 64 -12.9 8.7
03:25 1018 30.06 847 25.01 -7.1 19.3 62 -13.1 8.4
03:30 1018 30.06 848 25.04 -6.9 19.6 62 -13.1 8.4
03:35 1018 30.06 848 25.04 -6.9 19.6 62 -13.1 8.5
03:40 1018 30.06 848 25.04 -6.9 19.5 62 -12.9 8.7
03:45 1018 30.06 848 25.04 -7 19.4 62 -13 8.5
03:50 1019 30.09 848 25.04 -7.1 19.2 63 -13.1 8.5
03:55 1019 30.09 848 25.04 -7.3 18.9 64 -13.1 8.5
04:00 1019 30.09 848 25.04 -7.5 18.5 65 -13.1 8.5
04:05 1019 30.09 848 25.04 -7.6 18.4 64 -13.2 8.3
04:10 1019 30.09 848 25.04 -7.6 18.2 65 -13 8.5
04:15 1019 30.09 848 25.04 -7.6 18.4 65 -13.1 8.4
04:20 1019 30.09 848 25.04 -7.6 18.3 65 -13 8.6
04:25 1019 30.09 848 25.04 -7.7 18.2 66 -13 8.6
04:30 1019 30.09 848 25.04 -7.7 18.1 66 -13.1 8.5
04:35 1019 30.09 848 25.04 -7.7 18.1 65 -13.3 8.1
04:40 1019 30.09 848 25.04 -7.7 18.2 65 -13.2 8.3
04:45 1019 30.09 848 25.04 -7.7 18.1 65 -13.3 8.1
04:50 1019 30.09 848 25.04 -7.7 18.1 66 -13.1 8.5
04:55 1019 30.09 848 25.04 -7.8 17.9 67 -13 8.6
05:00 1019 30.09 848 25.04 -8 17.6 67 -13.1 8.5
05:05 1019 30.09 848 25.04 -8.1 17.5 67 -13.2 8.2
05:10 1019 30.09 848 25.04 -8.2 17.3 68 -13.2 8.3
05:15 1019 30.09 848 25.04 -8.3 17 68 -13.2 8.3
05:20 1019 30.09 848 25.04 -8.4 16.9 69 -13.1 8.3
05:25 1019 30.09 848 25.04 -8.5 16.6 69 -13.2 8.2
05:30 1019 30.09 848 25.04 -8.6 16.5 70 -13.2 8.3
05:35 1019 30.09 848 25.04 -8.7 16.3 69 -13.4 8
05:40 1019 30.09 849 25.07 -8.7 16.4 68 -13.5 7.7
05:45 1019 30.09 849 25.07 -8.6 16.6 67 -13.7 7.4
05:50 1019 30.09 849 25.07 -8.6 16.6 67 -13.7 7.3
05:55 1019 30.09 849 25.07 -8.6 16.6 67 -13.7 7.4
06:00 1019 30.09 849 25.07 -8.7 16.4 67 -13.7 7.3
06:05 1020 30.12 849 25.07 -8.7 16.4 67 -13.7 7.4
06:10 1020 30.12 849 25.07 -8.7 16.3 68 -13.6 7.5
06:15 1020 30.12 849 25.07 -8.9 16.1 69 -13.6 7.6
06:20 1020 30.12 849 25.07 -9 15.8 69 -13.7 7.4
06:25 1020 30.12 849 25.07 -9 15.8 69 -13.7 7.4
06:30 1020 30.12 849 25.07 -9.1 15.7 69 -13.8 7.2
06:35 1020 30.12 849 25.07 -9.2 15.5 68 -14 6.9
06:40 1020 30.12 849 25.07 -9.2 15.5 68 -14 6.7
06:45 1020 30.12 849 25.07 -9.3 15.4 67 -14.3 6.3
06:50 1020 30.12 849 25.07 -9.2 15.5 66 -14.5 5.9
06:55 1020 30.12 849 25.07 -9.2 15.5 65 -14.7 5.6
07:00 1020 30.12 849 25.07 -9.2 15.4 64 -14.9 5.2
07:05 1020 30.12 849 25.07 -9.5 15 64 -15 5
07:10 1020 30.12 849 25.07 -9.8 14.5 65 -15.2 4.6
07:15 1020 30.12 849 25.07 -9.9 14.3 64 -15.4 4.4
07:20 1020 30.12 849 25.07 -9.9 14.2 64 -15.4 4.3
07:25 1020 30.12 849 25.07 -9.9 14.2 64 -15.5 4.2
07:30 1020 30.12 849 25.07 -9.5 14.9 63 -15.4 4.3
07:35 1020 30.12 849 25.07 -9.6 14.8 62 -15.5 4.1
07:40 1020 30.12 849 25.07 -9.8 14.3 64 -15.5 4.1
07:45 1020 30.12 849 25.07 -10 14 64 -15.6 3.9
07:50 1020 30.12 849 25.07 -10.2 13.6 63 -15.9 3.4
07:55 1020 30.12 849 25.07 -10.6 12.9 64 -16.1 3
08:00 1020 30.12 849 25.07 -10.8 12.5 64 -16.3 2.7
08:05 1020 30.12 849 25.07 -10.8 12.5 63 -16.6 2
08:10 1020 30.12 849 25.07 -10.8 12.5 62 -16.8 1.8
08:15 1020 30.12 850 25.1 -10.9 12.4 62 -16.8 1.7
08:20 1020 30.12 850 25.1 -10.7 12.8 61 -16.8 1.8
08:25 1021 30.15 850 25.1 -10.1 13.9 59 -16.7 2
08:30 1021 30.15 850 25.1 -9.8 14.4 62 -15.7 3.7
08:35 1021 30.15 850 25.1 -10.8 12.5 65 -16.2 2.9
08:40 1021 30.15 850 25.1 -10.3 13.4 65 -15.7 3.7
08:45 1021 30.15 850 25.1 -10.3 13.6 64 -15.8 3.6
08:50 1021 30.15 850 25.1 -10.6 12.9 65 -15.9 3.4
08:55 1021 30.15 850 25.1 -10.7 12.8 65 -16 3.2
09:00 1021 30.15 850 25.1 -10.5 13.1 64 -16.1 3.1
09:05 1021 30.15 851 25.13 -10.5 13.2 64 -15.9 3.3
09:10 1021 30.15 851 25.13 -10.4 13.3 65 -15.8 3.6
09:15 1021 30.15 851 25.13 -10.3 13.5 64 -15.8 3.6
09:20 1022 30.18 851 25.13 -10.2 13.6 64 -15.8 3.6
09:25 1022 30.18 851 25.13 -9.9 14.1 64 -15.5 4
09:30 1022 30.18 851 25.13 -10.1 13.8 65 -15.5 4.1
09:35 1022 30.18 851 25.13 -10.5 13.1 67 -15.5 4.1
09:40 1022 30.18 851 25.13 -10.5 13.1 64 -16.1 3
09:45 1022 30.18 851 25.13 -11.3 11.7 68 -16.1 3
09:50 1022 30.18 851 25.13 -11.4 11.6 70 -15.9 3.4
09:55 1022 30.18 851 25.13 -10.8 12.5 70 -15.3 4.4
10:00 1022 30.18 851 25.13 -10.2 13.7 70 -14.7 5.5
10:05 1022 30.18 851 25.13 -10 13.9 68 -14.9 5.3
10:10 1022 30.18 851 25.13 -10.1 13.8 67 -15.1 4.8
10:15 1022 30.18 851 25.13 -10.4 13.3 69 -15.1 4.9
10:20 1022 30.18 851 25.13 -10.1 13.9 67 -15.1 4.9
10:25 1022 30.18 851 25.13 -9.8 14.3 66 -15 5
10:30 1022 30.18 851 25.13 -9.7 14.5 65 -15.1 4.8
10:35 1022 30.18 851 25.13 -9.1 15.7 64 -14.6 5.7
10:40 1022 30.18 851 25.13 -9.2 15.5 67 -14.3 6.2
10:45 1022 30.18 851 25.13 -8.3 17.1 63 -14.1 6.6
10:50 1022 30.18 851 25.13 -7.2 19.1 60 -13.8 7.2
10:55 1022 30.18 851 25.13 -6.1 21.1 57 -13.4 7.9
11:00 1022 30.18 851 25.13 -6.5 20.2 59 -13.3 8.1
11:05 1022 30.18 851 25.13 -7 19.3 56 -14.5 5.9
11:10 1022 30.18 851 25.13 -7.4 18.8 54 -15.1 4.9
11:15 1022 30.18 851 25.13 -7 19.5 52 -15.3 4.4
11:20 1022 30.18 851 25.13 -7.2 19.1 51 -15.8 3.6
11:25 1022 30.18 851 25.13 -7.4 18.7 52 -15.7 3.8
11:30 1022 30.18 851 25.13 -6.7 20 49 -15.7 3.7
11:35 1022 30.18 851 25.13 -6.4 20.5 48 -15.6 3.9
11:40 1022 30.18 851 25.13 -5.8 21.5 47 -15.3 4.4
11:45 1022 30.18 851 25.13 -6.3 20.7 48 -15.7 3.8
11:50 1022 30.18 851 25.13 -6.2 20.8 47 -15.8 3.6
11:55 1022 30.18 851 25.13 -6 21.1 48 -15.5 4.2
12:00 1022 30.18 851 25.13 -5.9 21.3 47 -15.6 4
12:05 1022 30.18 851 25.13 -6.1 21 49 -15.1 4.9
12:10 1022 30.18 851 25.13 -6.2 20.8 49 -15.2 4.6
12:15 1022 30.18 851 25.13 -6.2 20.8 52 -14.7 5.6
12:20 1022 30.18 851 25.13 -6 21.1 51 -14.6 5.6
12:25 1022 30.18 851 25.13 -6 21.2 51 -14.7 5.6
12:30 1022 30.18 851 25.13 -6.1 21 51 -14.8 5.4
12:35 1022 30.18 851 25.13 -6.2 20.9 52 -14.6 5.7
12:40 1022 30.18 851 25.13 -6 21.1 51 -14.5 5.9
12:45 1022 30.18 851 25.13 -6.7 20 56 -14.2 6.5
12:50 1022 30.18 851 25.13 -6.7 19.9 54 -14.6 5.7
12:55 1022 30.18 851 25.13 -6.3 20.6 53 -14.4 6.1
13:00 1022 30.18 851 25.13 -6.2 20.8 51 -14.8 5.3
13:05 1022 30.18 851 25.13 -6.2 20.9 50 -15.1 4.8
13:10 1022 30.18 851 25.13 -6.2 20.8 50 -15 5.1
13:15 1022 30.18 851 25.13 -6.2 20.8 50 -15 4.9
13:20 1022 30.18 851 25.13 -6.1 21.1 48 -15.3 4.5
13:25 1022 30.18 851 25.13 -5.6 22 47 -15.2 4.6
13:30 1022 30.18 851 25.13 -5.2 22.7 47 -14.8 5.4
13:35 1022 30.18 852 25.16 -5 23.1 47 -14.7 5.6
13:40 1022 30.18 852 25.16 -4.5 23.8 47 -14.3 6.3
13:45 1022 30.18 852 25.16 -4.8 23.4 48 -14.3 6.3
13:50 1022 30.18 852 25.16 -4.6 23.7 46 -14.5 5.9
13:55 1023 30.21 852 25.16 -4.3 24.2 46 -14.3 6.2
14:00 1023 30.21 852 25.16 -4.8 23.4 49 -14.1 6.7
14:05 1023 30.21 852 25.16 -5.5 22.2 51 -14.2 6.5
14:10 1023 30.21 852 25.16 -6.1 21 52 -14.5 5.9
14:15 1023 30.21 852 25.16 -6.4 20.5 52 -14.7 5.6
14:20 1023 30.21 852 25.16 -6.6 20.1 53 -14.6 5.7
14:25 1023 30.21 852 25.16 -6 21.1 50 -14.9 5.3
14:30 1023 30.21 852 25.16 -5.7 21.7 48 -15 5
14:35 1023 30.21 852 25.16 -5.6 22 48 -15 5
14:40 1023 30.21 852 25.16 -5.5 22.2 48 -14.9 5.1
14:45 1023 30.21 852 25.16 -5.1 22.8 47 -14.7 5.5
14:50 1023 30.21 852 25.16 -5 23 47 -14.8 5.4
14:55 1023 30.21 852 25.16 -4.9 23.2 48 -14.4 6.1
15:00 1023 30.21 852 25.16 -4.9 23.1 48 -14.4 6
15:05 1023 30.21 852 25.16 -5.2 22.7 47 -14.8 5.4
15:10 1023 30.21 852 25.16 -5.2 22.6 47 -14.8 5.4
15:15 1023 30.21 852 25.16 -5.3 22.5 48 -14.6 5.6
15:20 1023 30.21 852 25.16 -5.8 21.6 51 -14.5 5.9
15:25 1023 30.21 852 25.16 -7.2 19 56 -14.6 5.8
15:30 1023 30.21 852 25.16 -7.4 18.7 56 -14.8 5.4
15:35 1023 30.21 852 25.16 -7.5 18.6 57 -14.7 5.6
15:40 1023 30.21 852 25.16 -7.7 18.1 57 -14.9 5.2
15:45 1023 30.21 852 25.16 -8.1 17.4 56 -15.3 4.4
15:50 1023 30.21 852 25.16 -9.4 15.1 60 -15.8 3.5
15:55 1023 30.21 852 25.16 -9.6 14.6 61 -15.8 3.5
16:00 1023 30.21 852 25.16 -9.6 14.6 60 -16 3.3
16:05 1023 30.21 852 25.16 -9.9 14.3 61 -16 3.3
16:10 1023 30.21 852 25.16 -9.7 14.5 61 -15.9 3.3
16:15 1023 30.21 852 25.16 -9.6 14.7 61 -15.8 3.6
16:20 1023 30.21 852 25.16 -9.2 15.4 59 -15.7 3.7
16:25 1023 30.21 852 25.16 -8.9 16 58 -15.7 3.8
16:30 1023 30.21 852 25.16 -9.3 15.3 57 -16.2 2.8
16:35 1023 30.21 852 25.16 -9 15.7 56 -16.3 2.6
16:40 1023 30.21 852 25.16 -8.5 16.8 53 -16.5 2.3
16:45 1023 30.21 852 25.16 -7.9 17.8 51 -16.4 2.5
16:50 1023 30.21 852 25.16 -7.8 18 51 -16.3 2.7
16:55 1023 30.21 852 25.16 -7.9 17.9 50 -16.7 2
17:00 1023 30.21 852 25.16 -8 17.7 51 -16.5 2.4
17:05 1023 30.21 852 25.16 -8 17.6 50 -16.6 2.2
17:10 1023 30.21 852 25.16 -7.9 17.7 50 -16.6 2.1
17:15 1023 30.21 852 25.16 -7.9 17.8 49 -16.9 1.5
17:20 1023 30.21 852 25.16 -7.8 18 49 -16.9 1.7
17:25 1023 30.21 852 25.16 -7.7 18.1 49 -16.8 1.8
17:30 1023 30.21 852 25.16 -7.6 18.3 48 -16.9 1.6
17:35 1023 30.21 852 25.16 -7.7 18.2 49 -16.7 2
17:40 1023 30.21 852 25.16 -7.9 17.7 50 -16.7 2
17:45 1023 30.21 852 25.16 -7.9 17.8 49 -16.8 1.8
17:50 1023 30.21 852 25.16 -7.8 18 50 -16.5 2.4
17:55 1023 30.21 852 25.16 -7.9 17.8 51 -16.3 2.7
18:00 1023 30.21 852 25.16 -8 17.6 52 -16.2 2.9
18:05 1023 30.21 852 25.16 -8 17.5 52 -16.1 2.9
18:10 1023 30.21 852 25.16 -8.2 17.2 51 -16.6 2.2
18:15 1023 30.21 852 25.16 -8.1 17.4 52 -16.3 2.7
18:20 1023 30.21 852 25.16 -7.8 18 53 -15.8 3.6
18:25 1023 30.21 852 25.16 -7.7 18.2 55 -15.3 4.4
18:30 1023 30.21 852 25.16 -7.6 18.3 55 -15.1 4.8
18:35 1023 30.21 852 25.16 -7.6 18.3 55 -15.2 4.6
18:40 1023 30.21 852 25.16 -7.5 18.6 53 -15.4 4.2
18:45 1023 30.21 852 25.16 -7.3 18.8 54 -15.1 4.9
18:50 1023 30.21 852 25.16 -7.3 18.8 56 -14.6 5.8
18:55 1023 30.21 852 25.16 -7.3 18.8 58 -14.3 6.2
19:00 1023 30.21 852 25.16 -7.5 18.6 56 -14.8 5.4
19:05 1023 30.21 852 25.16 -7.4 18.6 57 -14.6 5.7
19:10 1023 30.21 852 25.16 -7.4 18.7 57 -14.6 5.7
19:15 1023 30.21 852 25.16 -7.3 18.9 54 -15 5
19:20 1023 30.21 852 25.16 -7 19.5 53 -15.1 4.9
19:25 1023 30.21 852 25.16 -6.8 19.8 52 -15 5
19:30 1023 30.21 852 25.16 -6.8 19.8 52 -15.2 4.7
19:35 1023 30.21 852 25.16 -6.7 19.9 50 -15.6 4
19:40 1023 30.21 852 25.16 -6.8 19.8 54 -14.5 5.9
19:45 1023 30.21 852 25.16 -6.8 19.7 54 -14.6 5.7
19:50 1023 30.21 852 25.16 -6.9 19.6 53 -15 5.1
19:55 1023 30.21 852 25.16 -6.8 19.7 54 -14.7 5.6
20:00 1022 30.18 852 25.16 -6.8 19.7 52 -15 4.9
20:05 1022 30.18 852 25.16 -6.6 20.2 47 -16 3.1
20:10 1022 30.18 852 25.16 -6.1 21 46 -16.1 3.1
20:15 1022 30.18 852 25.16 -6.1 21.1 50 -15 5.1
20:20 1022 30.18 852 25.16 -6.1 21.1 50 -14.8 5.3
20:25 1022 30.18 851 25.13 -6.1 21 50 -14.9 5.2
20:30 1022 30.18 851 25.13 -6.1 21.1 49 -15 5
20:35 1022 30.18 851 25.13 -6 21.2 50 -14.7 5.5
20:40 1022 30.18 851 25.13 -6 21.2 51 -14.7 5.5
20:45 1022 30.18 851 25.13 -6.1 21.1 52 -14.5 6
20:50 1022 30.18 851 25.13 -6.1 21 51 -14.8 5.3
20:55 1022 30.18 851 25.13 -6.2 20.9 51 -14.7 5.6
21:00 1022 30.18 851 25.13 -6.2 20.8 51 -14.9 5.3
21:05 1022 30.18 851 25.13 -6.2 20.8 51 -14.8 5.3
21:10 1022 30.18 851 25.13 -6.4 20.5 53 -14.6 5.8
21:15 1022 30.18 851 25.13 -6.3 20.6 53 -14.4 6.2
21:20 1022 30.18 851 25.13 -6.3 20.6 53 -14.3 6.2
21:25 1022 30.18 851 25.13 -6.4 20.5 54 -14.3 6.2
21:30 1022 30.18 851 25.13 -6.4 20.5 54 -14.4 6.2
21:35 1022 30.18 851 25.13 -6.2 20.8 55 -13.8 7.2
21:40 1022 30.18 851 25.13 -6.3 20.7 55 -13.8 7.1
21:45 1022 30.18 851 25.13 -6.5 20.3 55 -14 6.7
21:50 1022 30.18 851 25.13 -6.4 20.5 53 -14.6 5.8
21:55 1022 30.18 851 25.13 -6.3 20.7 52 -14.6 5.7
22:00 1022 30.18 851 25.13 -6.3 20.7 54 -14.2 6.5
22:05 1022 30.18 851 25.13 -6.4 20.5 56 -13.7 7.4
22:10 1022 30.18 851 25.13 -6.5 20.3 57 -13.7 7.4
22:15 1022 30.18 851 25.13 -6.6 20.1 59 -13.3 8.1
22:20 1022 30.18 851 25.13 -6.7 19.9 60 -13.2 8.3
22:25 1021 30.15 851 25.13 -6.7 19.9 61 -13.2 8.3
22:30 1021 30.15 851 25.13 -6.7 20 60 -13.3 8.1
22:35 1021 30.15 850 25.1 -6.6 20.1 60 -13.2 8.3
22:40 1021 30.15 851 25.13 -6.6 20.1 59 -13.3 8
22:45 1021 30.15 850 25.1 -6.6 20.2 61 -13 8.7
22:50 1021 30.15 850 25.1 -6.6 20.2 61 -13 8.7
22:55 1021 30.15 850 25.1 -6.5 20.2 61 -12.9 8.9
23:00 1021 30.15 850 25.1 -6.6 20.2 61 -12.8 8.9
23:05 1021 30.15 850 25.1 -6.6 20.1 60 -13.1 8.4
23:10 1021 30.15 850 25.1 -6.5 20.4 59 -13.1 8.4
23:15 1021 30.15 850 25.1 -6.5 20.3 59 -13.2 8.2
23:20 1021 30.15 850 25.1 -6.5 20.3 57 -13.7 7.3
23:25 1021 30.15 850 25.1 -6.5 20.3 55 -14.1 6.5
23:30 1021 30.15 850 25.1 -6.4 20.5 53 -14.6 5.8
23:35 1021 30.15 850 25.1 -6.4 20.4 51 -14.9 5.2
23:40 1021 30.15 850 25.1 -6.5 20.4 52 -14.7 5.5
23:45 1021 30.15 850 25.1 -6.5 20.2 53 -14.7 5.6
23:50 1021 30.15 850 25.1 -6.5 20.2 53 -14.7 5.5
23:55 1021 30.15 850 25.1 -6.5 20.3 53 -14.5 5.9
24:00 1021 30.15 850 25.1 -6.3 20.6 54 -14.3 6.2